createdAt,value
2022-12-04T00:01:07.542Z,1.60
2022-12-04T00:03:34.675Z,1.70
2022-12-04T00:06:09.757Z,1.70
2022-12-04T00:08:36.967Z,1.70
2022-12-04T00:11:05.344Z,1.70
2022-12-04T00:13:33.084Z,1.70
2022-12-04T00:15:59.826Z,1.70
2022-12-04T00:18:27.295Z,1.70
2022-12-04T00:20:54.003Z,1.60
2022-12-04T00:23:20.705Z,1.60
2022-12-04T00:25:48.732Z,1.60
2022-12-04T00:28:19.240Z,1.60
2022-12-04T00:30:46.348Z,1.60
2022-12-04T00:33:14.073Z,1.60
2022-12-04T00:35:41.041Z,1.70
2022-12-04T00:38:07.883Z,1.70
2022-12-04T00:40:34.667Z,1.90
2022-12-04T00:43:01.491Z,1.90
2022-12-04T00:45:28.337Z,2.00
2022-12-04T00:47:55.073Z,2.00
2022-12-04T00:50:22.516Z,2.00
2022-12-04T00:52:49.255Z,1.90
2022-12-04T00:55:15.986Z,1.90
2022-12-04T00:57:42.687Z,1.80
2022-12-04T01:00:09.753Z,1.80
2022-12-04T01:02:36.521Z,1.70
2022-12-04T01:05:03.939Z,1.70
2022-12-04T01:07:30.682Z,1.60
2022-12-04T01:09:57.780Z,1.60
2022-12-04T01:12:24.721Z,1.50
2022-12-04T01:14:51.488Z,1.50
2022-12-04T01:17:18.664Z,1.50
2022-12-04T01:19:45.399Z,1.50
2022-12-04T01:22:12.127Z,1.60
2022-12-04T01:24:38.835Z,1.60
2022-12-04T01:27:05.636Z,1.60
2022-12-04T01:29:32.301Z,1.60
2022-12-04T01:31:59.407Z,1.60
2022-12-04T01:34:26.218Z,1.60
2022-12-04T01:36:52.991Z,1.60
2022-12-04T01:39:19.841Z,1.60
2022-12-04T01:41:46.552Z,1.50
2022-12-04T01:44:20.403Z,1.50
2022-12-04T01:46:51.438Z,1.50
2022-12-04T01:49:26.021Z,1.40
2022-12-04T01:52:15.846Z,1.40
2022-12-04T01:54:46.143Z,1.50
2022-12-04T01:57:22.070Z,1.50
2022-12-04T02:00:02.064Z,1.40
2022-12-04T02:02:35.469Z,1.40
2022-12-04T02:05:04.387Z,1.40
2022-12-04T02:07:31.714Z,1.40
2022-12-04T02:10:03.738Z,1.40
2022-12-04T02:12:51.229Z,1.40
2022-12-04T02:15:21.956Z,1.50
2022-12-04T02:18:03.893Z,1.50
2022-12-04T02:20:41.936Z,1.40
2022-12-04T02:23:53.342Z,1.50
2022-12-04T02:26:29.995Z,1.50
2022-12-04T02:29:14.623Z,1.50
2022-12-04T02:31:48.986Z,1.60
2022-12-04T02:34:25.467Z,1.50
2022-12-04T02:37:22.027Z,1.50
2022-12-04T02:40:04.970Z,1.50
2022-12-04T02:42:42.131Z,1.50
2022-12-04T02:45:14.485Z,1.40
2022-12-04T02:47:43.121Z,1.40
2022-12-04T02:50:13.620Z,1.40
2022-12-04T02:52:46.289Z,1.40
2022-12-04T02:55:20.215Z,1.30
2022-12-04T02:57:51.293Z,1.30
2022-12-04T03:00:19.098Z,1.30
2022-12-04T03:02:56.523Z,1.20
2022-12-04T03:05:35.233Z,1.20
2022-12-04T03:08:08.185Z,1.20
2022-12-04T03:10:44.194Z,1.20
2022-12-04T03:13:18.506Z,1.20
2022-12-04T03:15:54.499Z,1.20
2022-12-04T03:18:32.278Z,1.20
2022-12-04T03:21:10.372Z,1.20
2022-12-04T03:23:44.909Z,1.10
2022-12-04T03:26:38.510Z,1.10
2022-12-04T03:29:11.767Z,1.10
2022-12-04T03:31:44.179Z,1.10
2022-12-04T03:34:13.310Z,1.10
2022-12-04T03:36:50.026Z,1.10
2022-12-04T03:39:26.545Z,1.10
2022-12-04T03:42:01.698Z,1.10
2022-12-04T03:45:00.391Z,1.10
2022-12-04T03:47:36.785Z,1.10
2022-12-04T03:50:19.151Z,1.10
2022-12-04T03:52:52.182Z,1.20
2022-12-04T03:55:37.663Z,1.20
2022-12-04T03:58:09.370Z,1.20
2022-12-04T04:00:41.539Z,1.20
2022-12-04T04:03:14.234Z,1.20
2022-12-04T04:05:44.981Z,1.20
2022-12-04T04:08:30.940Z,1.20
2022-12-04T04:11:18.891Z,1.20
2022-12-04T04:14:17.318Z,1.20
2022-12-04T04:17:08.449Z,1.20
2022-12-04T04:19:56.013Z,1.20
2022-12-04T04:22:43.901Z,1.20
2022-12-04T04:25:14.699Z,1.20
2022-12-04T04:27:41.644Z,1.20
2022-12-04T04:30:09.630Z,1.30
2022-12-04T04:32:57.429Z,1.30
2022-12-04T04:35:53.383Z,1.30
2022-12-04T04:38:20.184Z,1.30
2022-12-04T04:41:08.807Z,1.40
2022-12-04T04:44:08.419Z,1.40
2022-12-04T04:46:41.838Z,1.40
2022-12-04T04:49:12.054Z,1.40
2022-12-04T04:51:38.873Z,1.40
2022-12-04T04:54:09.851Z,1.40
2022-12-04T04:56:44.982Z,1.40
2022-12-04T04:59:12.583Z,1.40
2022-12-04T05:01:41.733Z,1.40
2022-12-04T05:04:08.790Z,1.30
2022-12-04T05:06:35.538Z,1.30
2022-12-04T05:09:02.444Z,1.30
2022-12-04T05:11:29.194Z,1.40
2022-12-04T05:13:55.901Z,1.40
2022-12-04T05:16:22.781Z,1.40
2022-12-04T05:19:09.158Z,1.40
2022-12-04T05:21:35.889Z,1.50
2022-12-04T05:24:02.653Z,1.50
2022-12-04T05:26:29.378Z,1.50
2022-12-04T05:28:56.051Z,1.50
2022-12-04T05:31:22.905Z,1.50
2022-12-04T05:33:49.688Z,1.50
2022-12-04T05:36:16.461Z,1.50
2022-12-04T05:38:43.286Z,1.50
2022-12-04T05:41:09.983Z,1.50
2022-12-04T05:43:36.752Z,1.50
2022-12-04T05:46:08.550Z,1.60
2022-12-04T05:48:35.913Z,1.60
2022-12-04T05:51:10.319Z,1.60
2022-12-04T05:53:37.973Z,1.70
2022-12-04T05:56:05.909Z,1.70
2022-12-04T05:58:36.226Z,1.70
2022-12-04T06:01:09.829Z,1.60
2022-12-04T06:03:36.646Z,1.60
2022-12-04T06:06:04.577Z,1.60
2022-12-04T06:08:32.011Z,1.60
2022-12-04T06:10:58.747Z,1.60
2022-12-04T06:13:25.487Z,1.60
2022-12-04T06:15:52.166Z,1.60
2022-12-04T06:18:18.853Z,1.60
2022-12-04T06:20:45.598Z,1.60
2022-12-04T06:23:12.369Z,1.50
2022-12-04T06:25:39.059Z,1.50
2022-12-04T06:28:05.859Z,1.50
2022-12-04T06:30:34.246Z,1.60
2022-12-04T06:33:00.931Z,1.60
2022-12-04T06:35:27.623Z,1.50
2022-12-04T06:37:54.336Z,1.60
2022-12-04T06:40:21.040Z,1.60
2022-12-04T06:42:47.847Z,1.60
2022-12-04T06:45:15.247Z,1.60
2022-12-04T06:47:41.941Z,1.60
2022-12-04T06:50:09.068Z,1.50
2022-12-04T06:52:35.788Z,1.60
2022-12-04T06:55:02.483Z,1.50
2022-12-04T06:57:29.166Z,1.60
2022-12-04T06:59:56.001Z,1.60
2022-12-04T07:02:23.042Z,1.60
2022-12-04T07:04:49.798Z,1.70
2022-12-04T07:07:16.479Z,1.70
2022-12-04T07:09:44.204Z,1.60
2022-12-04T07:12:10.879Z,1.60
2022-12-04T07:14:37.602Z,1.60
2022-12-04T07:17:04.519Z,1.60
2022-12-04T07:19:31.282Z,1.60
2022-12-04T07:21:57.952Z,1.60
2022-12-04T07:24:24.635Z,1.60
2022-12-04T07:26:51.483Z,1.60
2022-12-04T07:29:18.176Z,1.60
2022-12-04T07:31:45.007Z,1.60
2022-12-04T07:34:11.776Z,1.60
2022-12-04T07:36:39.798Z,1.60
2022-12-04T07:39:06.531Z,1.50
2022-12-04T07:41:33.272Z,1.50
2022-12-04T07:43:59.976Z,1.50
2022-12-04T07:46:27.979Z,1.50
2022-12-04T07:48:59.161Z,1.50
2022-12-04T07:51:28.082Z,1.50
2022-12-04T07:54:02.085Z,1.50
2022-12-04T07:56:30.224Z,1.50
2022-12-04T07:58:56.949Z,1.50
2022-12-04T08:01:24.595Z,1.50
2022-12-04T08:03:55.444Z,1.50
2022-12-04T08:06:24.418Z,1.50
2022-12-04T08:08:52.016Z,1.50
2022-12-04T08:11:24.051Z,1.60
2022-12-04T08:14:01.810Z,1.60
2022-12-04T08:16:31.218Z,1.60
2022-12-04T08:18:58.268Z,1.70
2022-12-04T08:21:30.003Z,1.70
2022-12-04T08:23:58.021Z,1.70
2022-12-04T08:26:27.355Z,1.70
2022-12-04T08:28:55.522Z,1.70
2022-12-04T08:31:25.829Z,1.70
2022-12-04T08:33:54.881Z,1.80
2022-12-04T08:36:22.518Z,1.80
2022-12-04T08:38:49.737Z,1.90
2022-12-04T08:41:18.610Z,1.90
2022-12-04T08:43:45.489Z,1.90
2022-12-04T08:46:18.062Z,1.90
2022-12-04T08:48:45.666Z,2.00
2022-12-04T08:51:23.015Z,2.10
2022-12-04T08:53:56.824Z,2.10
2022-12-04T08:56:24.405Z,2.10
2022-12-04T08:58:51.228Z,2.20
2022-12-04T09:01:18.182Z,2.20
2022-12-04T09:03:45.035Z,2.20
2022-12-04T09:06:14.632Z,2.30
2022-12-04T09:08:43.065Z,2.40
2022-12-04T09:11:16.156Z,2.40
2022-12-04T09:13:44.398Z,2.50
2022-12-04T09:16:19.732Z,2.50
2022-12-04T09:18:47.448Z,2.50
2022-12-04T09:21:16.771Z,2.50
2022-12-04T09:23:43.978Z,2.60
2022-12-04T09:26:27.353Z,2.60
2022-12-04T09:28:55.981Z,2.60
2022-12-04T09:31:24.644Z,2.80
2022-12-04T09:33:52.150Z,2.80
2022-12-04T09:36:19.475Z,2.90
2022-12-04T09:38:51.214Z,2.90
2022-12-04T09:41:36.268Z,2.90
2022-12-04T09:44:20.059Z,3.00
2022-12-04T09:46:52.906Z,3.10
2022-12-04T09:49:43.246Z,3.20
2022-12-04T09:52:22.161Z,3.20
2022-12-04T09:54:50.757Z,3.20
2022-12-04T09:57:28.698Z,3.20
2022-12-04T09:59:56.433Z,3.20
2022-12-04T10:02:39.780Z,3.20
2022-12-04T10:05:18.277Z,3.30
2022-12-04T10:08:09.428Z,3.30
2022-12-04T10:11:04.816Z,3.40
2022-12-04T10:13:54.533Z,3.50
2022-12-04T10:16:47.485Z,3.50
2022-12-04T10:19:29.034Z,3.70
2022-12-04T10:22:09.762Z,3.70
2022-12-04T10:24:56.059Z,3.70
2022-12-04T10:27:34.706Z,3.80
2022-12-04T10:30:21.868Z,3.70
2022-12-04T10:32:53.024Z,3.80
2022-12-04T10:35:24.974Z,3.70
2022-12-04T10:37:57.120Z,3.70
2022-12-04T10:40:37.926Z,3.70
2022-12-04T10:43:20.670Z,3.60
2022-12-04T10:45:47.446Z,3.60
2022-12-04T10:48:40.892Z,3.70
2022-12-04T10:51:17.155Z,3.70
2022-12-04T10:53:45.679Z,3.70
2022-12-04T10:56:22.109Z,3.70
2022-12-04T10:59:01.219Z,3.70
2022-12-04T11:01:33.690Z,3.70
2022-12-04T11:04:05.663Z,3.60
2022-12-04T11:06:32.902Z,3.60
2022-12-04T11:09:02.075Z,3.60
2022-12-04T11:11:33.877Z,3.70
2022-12-04T11:14:20.210Z,3.70
2022-12-04T11:16:50.113Z,3.60
2022-12-04T11:19:25.621Z,3.60
2022-12-04T11:21:59.165Z,3.60
2022-12-04T11:24:37.836Z,3.60
2022-12-04T11:27:07.403Z,3.70
2022-12-04T11:29:42.818Z,3.70
2022-12-04T11:32:45.807Z,3.70
2022-12-04T11:35:25.787Z,3.80
2022-12-04T11:38:06.134Z,3.80
2022-12-04T11:40:33.420Z,3.90
2022-12-04T11:43:20.877Z,3.90
2022-12-04T11:46:21.303Z,4.00
2022-12-04T11:48:48.132Z,4.00
2022-12-04T11:51:32.953Z,4.00
2022-12-04T11:54:23.346Z,4.00
2022-12-04T11:57:22.575Z,4.10
2022-12-04T12:00:04.390Z,4.10
2022-12-04T12:02:43.231Z,4.10
2022-12-04T12:05:13.124Z,4.10
2022-12-04T12:07:55.275Z,4.00
2022-12-04T12:13:40.367Z,4.00
2022-12-04T12:16:26.294Z,4.00
2022-12-04T12:19:14.706Z,4.00
2022-12-04T12:22:14.194Z,4.00
2022-12-04T12:25:17.203Z,4.00
2022-12-04T12:28:14.906Z,4.10
2022-12-04T12:31:14.879Z,4.10
2022-12-04T12:34:17.399Z,4.10
2022-12-04T12:36:49.952Z,4.20
2022-12-04T12:39:40.259Z,4.20
2022-12-04T12:42:11.487Z,4.30
2022-12-04T12:45:22.966Z,4.30
2022-12-04T12:47:52.534Z,4.30
2022-12-04T12:50:28.384Z,4.30
2022-12-04T12:53:03.491Z,4.30
2022-12-04T12:55:36.565Z,4.40
2022-12-04T12:58:17.569Z,4.30
2022-12-04T13:00:51.170Z,4.30
2022-12-04T13:03:27.079Z,4.30
2022-12-04T13:05:59.703Z,4.30
2022-12-04T13:08:30.767Z,4.30
2022-12-04T13:11:21.713Z,4.30
2022-12-04T13:14:06.739Z,4.30
2022-12-04T13:16:39.318Z,4.20
2022-12-04T13:19:23.160Z,4.20
2022-12-04T13:22:16.515Z,4.10
2022-12-04T13:24:53.635Z,4.10
2022-12-04T13:27:50.704Z,4.10
2022-12-04T13:30:28.067Z,4.00
2022-12-04T13:33:16.607Z,4.10
2022-12-04T13:36:10.520Z,4.00
2022-12-04T13:38:51.568Z,4.00
2022-12-04T13:41:24.077Z,4.10
2022-12-04T13:43:52.778Z,4.10
2022-12-04T13:46:37.379Z,4.10
2022-12-04T13:49:33.037Z,4.10
2022-12-04T13:52:02.543Z,4.10
2022-12-04T13:54:35.226Z,4.10
2022-12-04T13:57:17.201Z,4.10
2022-12-04T13:59:44.541Z,4.10
2022-12-04T14:02:28.585Z,4.10
2022-12-04T14:05:02.506Z,4.10
2022-12-04T14:07:37.075Z,4.10
2022-12-04T14:10:14.937Z,4.10
2022-12-04T14:12:48.970Z,4.10
2022-12-04T14:15:24.390Z,4.10
2022-12-04T14:18:05.220Z,4.10
2022-12-04T14:20:34.465Z,4.00
2022-12-04T14:23:33.792Z,4.00
2022-12-04T14:26:03.097Z,4.00
2022-12-04T14:28:38.734Z,4.00
2022-12-04T14:31:08.561Z,4.00
2022-12-04T14:33:42.892Z,4.10
2022-12-04T14:36:17.994Z,4.10
2022-12-04T14:38:48.211Z,4.10
2022-12-04T14:41:23.261Z,4.10
2022-12-04T14:43:50.314Z,4.10
2022-12-04T14:46:47.534Z,4.10
2022-12-04T14:49:21.791Z,4.20
2022-12-04T14:52:00.981Z,4.20
2022-12-04T14:55:12.170Z,4.20
2022-12-04T14:57:59.531Z,4.20
2022-12-04T15:00:26.551Z,4.20
2022-12-04T15:02:57.202Z,4.20
2022-12-04T15:05:31.359Z,4.20
2022-12-04T15:08:01.980Z,4.10
2022-12-04T15:10:49.869Z,4.10
2022-12-04T15:13:31.492Z,4.00
2022-12-04T15:15:58.449Z,4.00
2022-12-04T15:18:25.221Z,4.00
2022-12-04T15:20:51.874Z,3.90
2022-12-04T15:23:29.599Z,3.90
2022-12-04T15:25:58.398Z,3.90
2022-12-04T15:28:33.941Z,3.80
2022-12-04T15:31:05.704Z,3.80
2022-12-04T15:33:38.080Z,3.80
2022-12-04T15:36:37.570Z,3.80
2022-12-04T15:39:05.441Z,3.70
2022-12-04T15:41:33.525Z,3.70
2022-12-04T15:44:01.042Z,3.70
2022-12-04T15:46:37.960Z,3.70
2022-12-04T15:49:26.153Z,3.60
2022-12-04T15:52:15.578Z,3.60
2022-12-04T15:54:57.718Z,3.60
2022-12-04T15:57:34.487Z,3.50
2022-12-04T16:00:05.231Z,3.50
2022-12-04T16:02:41.830Z,3.40
2022-12-04T16:05:21.530Z,3.40
2022-12-04T16:07:53.894Z,3.40
2022-12-04T16:10:30.462Z,3.40
2022-12-04T16:13:00.778Z,3.40
2022-12-04T16:15:39.926Z,3.40
2022-12-04T16:18:11.170Z,3.40
2022-12-04T16:20:38.883Z,3.30
2022-12-04T16:23:05.899Z,3.30
2022-12-04T16:25:32.790Z,3.30
2022-12-04T16:28:00.858Z,3.30
2022-12-04T16:30:29.769Z,3.30
2022-12-04T16:32:56.436Z,3.30
2022-12-04T16:35:23.164Z,3.30
2022-12-04T16:37:49.945Z,3.30
2022-12-04T16:40:17.153Z,3.40
2022-12-04T16:42:44.624Z,3.40
2022-12-04T16:45:28.489Z,3.30
2022-12-04T16:47:57.925Z,3.30
2022-12-04T16:50:26.146Z,3.30
2022-12-04T16:52:53.239Z,3.20
2022-12-04T16:55:21.793Z,3.20
2022-12-04T16:57:48.507Z,3.20
2022-12-04T17:00:17.141Z,3.20
2022-12-04T17:02:45.122Z,3.20
2022-12-04T17:05:27.059Z,3.20
2022-12-04T17:07:55.107Z,3.20
2022-12-04T17:10:24.257Z,3.20
2022-12-04T17:12:55.182Z,3.20
2022-12-04T17:15:22.261Z,3.20
2022-12-04T17:17:49.056Z,3.10
2022-12-04T17:20:18.225Z,3.10
2022-12-04T17:22:45.105Z,3.10
2022-12-04T17:25:12.563Z,3.10
2022-12-04T17:27:39.414Z,3.10
2022-12-04T17:30:07.627Z,3.10
2022-12-04T17:32:34.971Z,3.10
2022-12-04T17:35:02.864Z,3.10
2022-12-04T17:37:30.911Z,3.10
2022-12-04T17:39:58.414Z,3.10
2022-12-04T17:42:25.239Z,3.10
2022-12-04T17:44:51.998Z,3.10
2022-12-04T17:47:18.974Z,3.10
2022-12-04T17:49:45.664Z,3.10
2022-12-04T17:52:12.409Z,3.10
2022-12-04T17:54:39.096Z,3.10
2022-12-04T17:57:05.871Z,3.10
2022-12-04T17:59:32.627Z,3.10
2022-12-04T18:01:59.354Z,3.10
2022-12-04T18:04:26.134Z,3.10
2022-12-04T18:06:53.095Z,3.10
2022-12-04T18:09:19.786Z,3.10
2022-12-04T18:11:47.954Z,3.10
2022-12-04T18:14:17.339Z,3.10
2022-12-04T18:16:53.819Z,3.10
2022-12-04T18:19:23.079Z,3.10
2022-12-04T18:21:50.471Z,3.20
2022-12-04T18:24:17.583Z,3.20
2022-12-04T18:26:48.147Z,3.10
2022-12-04T18:29:18.230Z,3.10
2022-12-04T18:31:45.881Z,3.10
2022-12-04T18:34:14.681Z,3.10
2022-12-04T18:36:42.129Z,3.10
2022-12-04T18:39:13.223Z,3.10
2022-12-04T18:41:40.427Z,3.10
2022-12-04T18:44:07.110Z,3.10
2022-12-04T18:46:34.041Z,3.20
2022-12-04T18:49:01.400Z,3.20
2022-12-04T18:51:34.136Z,3.20
2022-12-04T18:54:03.698Z,3.20
2022-12-04T18:56:31.400Z,3.10
2022-12-04T18:59:04.091Z,3.20
2022-12-04T19:01:31.514Z,3.10
2022-12-04T19:04:03.704Z,3.20
2022-12-04T19:06:33.003Z,3.10
2022-12-04T19:09:01.416Z,3.10
2022-12-04T19:11:28.614Z,3.20
2022-12-04T19:13:55.322Z,3.20
2022-12-04T19:16:22.103Z,3.10
2022-12-04T19:18:48.961Z,3.10
2022-12-04T19:21:16.958Z,3.10
2022-12-04T19:23:50.155Z,3.10
2022-12-04T19:26:17.978Z,3.10
2022-12-04T19:28:44.866Z,3.10
2022-12-04T19:31:16.787Z,3.20
2022-12-04T19:33:43.858Z,3.20
2022-12-04T19:36:12.022Z,3.10
2022-12-04T19:38:38.734Z,3.20
2022-12-04T19:41:17.553Z,3.20
2022-12-04T19:43:46.839Z,3.20
2022-12-04T19:46:16.300Z,3.20
2022-12-04T19:48:45.150Z,3.10
2022-12-04T19:51:14.960Z,3.10
2022-12-04T19:53:42.589Z,3.10
2022-12-04T19:56:15.047Z,3.10
2022-12-04T19:58:42.545Z,3.10
2022-12-04T20:01:13.196Z,3.00
2022-12-04T20:06:18.173Z,3.00
2022-12-04T20:08:45.339Z,3.00
2022-12-04T20:11:15.699Z,3.10
2022-12-04T20:13:43.134Z,3.10
2022-12-04T20:16:12.129Z,3.10
2022-12-04T20:18:39.861Z,3.10
2022-12-04T20:21:11.252Z,3.00
2022-12-04T20:23:38.438Z,3.00
2022-12-04T20:26:07.621Z,3.00
2022-12-04T20:28:34.603Z,3.00
2022-12-04T20:31:01.584Z,3.00
2022-12-04T20:33:28.328Z,3.00
2022-12-04T20:35:55.506Z,3.00
2022-12-04T20:38:22.268Z,3.00
2022-12-04T20:40:49.015Z,3.00
2022-12-04T20:43:15.724Z,3.00
2022-12-04T20:45:42.460Z,3.00
2022-12-04T20:48:09.273Z,3.00
2022-12-04T20:50:36.126Z,3.00
2022-12-04T20:53:02.848Z,2.90
2022-12-04T20:55:29.561Z,2.90
2022-12-04T20:57:57.505Z,3.00
2022-12-04T21:00:24.224Z,3.00
2022-12-04T21:02:51.011Z,2.90
2022-12-04T21:05:17.807Z,2.90
2022-12-04T21:07:44.714Z,2.90
2022-12-04T21:10:11.611Z,2.90
2022-12-04T21:12:56.888Z,2.90
2022-12-04T21:15:42.514Z,2.90
2022-12-04T21:18:09.301Z,2.90
2022-12-04T21:20:35.989Z,2.90
2022-12-04T21:23:02.683Z,2.90
2022-12-04T21:25:29.426Z,2.90
2022-12-04T21:27:56.138Z,2.90
2022-12-04T21:30:22.884Z,3.00
2022-12-04T21:32:49.574Z,2.90
2022-12-04T21:35:16.308Z,3.00
2022-12-04T21:37:43.140Z,3.00
2022-12-04T21:40:10.786Z,3.00
2022-12-04T21:42:38.766Z,3.00
2022-12-04T21:45:07.507Z,3.00
2022-12-04T21:47:36.302Z,3.00
2022-12-04T21:50:04.561Z,3.00
2022-12-04T21:52:31.447Z,3.00
2022-12-04T21:54:58.196Z,3.00
2022-12-04T21:57:25.341Z,3.00
2022-12-04T21:59:52.408Z,2.90
2022-12-04T22:02:19.339Z,2.90
2022-12-04T22:04:46.188Z,2.90
2022-12-04T22:07:13.250Z,2.90
2022-12-04T22:09:40.206Z,2.90
2022-12-04T22:12:26.392Z,2.90
2022-12-04T22:14:53.944Z,2.90
2022-12-04T22:17:20.634Z,2.90
2022-12-04T22:19:47.354Z,2.80
2022-12-04T22:22:14.059Z,2.80
2022-12-04T22:24:41.674Z,2.80
2022-12-04T22:27:14.739Z,2.80
2022-12-04T22:29:50.134Z,2.80
2022-12-04T22:32:17.323Z,2.80
2022-12-04T22:34:44.174Z,2.80
2022-12-04T22:37:10.952Z,2.80
2022-12-04T22:39:37.696Z,2.80
2022-12-04T22:42:04.491Z,2.80
2022-12-04T22:44:31.279Z,2.80
2022-12-04T22:46:58.126Z,2.80
2022-12-04T22:49:24.917Z,2.80
2022-12-04T22:51:51.619Z,2.80
2022-12-04T22:54:18.295Z,2.80
2022-12-04T22:56:45.003Z,2.80
2022-12-04T22:59:11.791Z,2.80
2022-12-04T23:01:38.486Z,2.80
2022-12-04T23:04:05.514Z,2.90
2022-12-04T23:06:33.707Z,2.90
2022-12-04T23:09:05.040Z,2.80
2022-12-04T23:11:31.910Z,2.90
2022-12-04T23:14:01.191Z,2.90
2022-12-04T23:16:30.097Z,2.90
2022-12-04T23:18:57.767Z,2.90
2022-12-04T23:21:25.217Z,3.00
2022-12-04T23:23:53.870Z,3.00
2022-12-04T23:26:23.818Z,3.00
2022-12-04T23:28:50.658Z,3.00
2022-12-04T23:31:17.808Z,3.00
2022-12-04T23:33:45.088Z,3.00
2022-12-04T23:36:13.323Z,3.00
2022-12-04T23:38:41.581Z,3.00
2022-12-04T23:41:18.299Z,3.00
2022-12-04T23:43:45.663Z,3.00
2022-12-04T23:46:14.134Z,3.00
2022-12-04T23:48:42.361Z,3.00
2022-12-04T23:51:10.170Z,3.00
2022-12-04T23:53:37.289Z,3.00
2022-12-04T23:56:09.830Z,3.00
2022-12-04T23:58:37.214Z,3.00
